createdAt,value
2017-08-27T00:02:40.889Z,84.60
2017-08-27T00:05:50.827Z,84.90
2017-08-27T00:09:01.045Z,84.60
2017-08-27T00:12:11.620Z,85.60
2017-08-27T00:15:22.429Z,85.00
2017-08-27T00:18:32.634Z,84.80
2017-08-27T00:21:43.529Z,85.80
2017-08-27T00:24:54.099Z,85.80
2017-08-27T00:28:04.065Z,86.20
2017-08-27T00:31:14.212Z,86.80
2017-08-27T00:34:24.953Z,86.10
2017-08-27T00:37:35.589Z,86.10
2017-08-27T00:40:45.969Z,85.80
2017-08-27T00:43:56.130Z,86.60
2017-08-27T00:47:05.616Z,86.60
2017-08-27T00:50:16.268Z,84.80
2017-08-27T00:53:25.886Z,84.70
2017-08-27T00:56:34.795Z,85.50
2017-08-27T00:59:43.660Z,85.40
2017-08-27T01:02:53.585Z,85.60
2017-08-27T01:06:03.569Z,85.80
2017-08-27T01:09:13.759Z,85.70
2017-08-27T01:12:24.406Z,86.00
2017-08-27T01:15:34.659Z,87.30
2017-08-27T01:18:45.038Z,86.50
2017-08-27T01:21:55.444Z,86.30
2017-08-27T01:25:05.256Z,86.40
2017-08-27T01:28:15.652Z,86.40
2017-08-27T01:31:27.259Z,85.90
2017-08-27T01:34:37.693Z,85.70
2017-08-27T01:37:48.252Z,86.20
2017-08-27T01:40:58.137Z,86.40
2017-08-27T01:44:08.721Z,86.10
2017-08-27T01:47:19.195Z,86.10
2017-08-27T01:50:29.616Z,86.00
2017-08-27T01:53:40.593Z,87.40
2017-08-27T01:56:51.337Z,86.70
2017-08-27T02:00:01.391Z,86.70
2017-08-27T02:03:12.133Z,87.70
2017-08-27T02:06:22.400Z,87.10
2017-08-27T02:09:33.545Z,87.60
2017-08-27T02:12:44.008Z,87.50
2017-08-27T02:15:54.358Z,87.10
2017-08-27T02:19:04.916Z,87.40
2017-08-27T02:22:14.836Z,86.20
2017-08-27T02:25:25.465Z,86.30
2017-08-27T02:28:35.717Z,86.10
2017-08-27T02:31:45.603Z,86.90
2017-08-27T02:34:55.980Z,86.30
2017-08-27T02:38:06.228Z,86.90
2017-08-27T02:41:17.312Z,87.00
2017-08-27T02:44:27.327Z,87.00
2017-08-27T02:47:37.725Z,86.60
2017-08-27T02:50:47.635Z,87.00
2017-08-27T02:53:58.056Z,87.20
2017-08-27T02:57:08.152Z,87.20
2017-08-27T03:00:18.873Z,86.50
2017-08-27T03:03:28.916Z,86.60
2017-08-27T03:06:39.445Z,88.10
2017-08-27T03:09:49.722Z,87.60
2017-08-27T03:12:59.687Z,87.90
2017-08-27T03:16:09.709Z,89.30
2017-08-27T03:19:19.324Z,87.30
2017-08-27T03:22:29.152Z,88.60
2017-08-27T03:25:40.085Z,89.30
2017-08-27T03:28:50.475Z,89.40
2017-08-27T03:32:00.533Z,90.70
2017-08-27T03:35:11.449Z,88.70
2017-08-27T03:38:22.730Z,89.60
2017-08-27T03:41:33.596Z,90.10
2017-08-27T03:44:44.037Z,90.10
2017-08-27T03:47:54.152Z,90.40
2017-08-27T03:51:04.514Z,88.50
2017-08-27T03:54:14.633Z,90.30
2017-08-27T03:57:24.696Z,90.20
2017-08-27T04:00:34.755Z,89.70
2017-08-27T04:03:45.124Z,90.00
2017-08-27T04:06:55.221Z,89.30
2017-08-27T04:10:05.364Z,90.20
2017-08-27T04:13:15.943Z,88.40
2017-08-27T04:16:26.561Z,88.90
2017-08-27T04:19:36.905Z,87.60
2017-08-27T04:22:47.037Z,88.90
2017-08-27T04:25:57.333Z,89.60
2017-08-27T04:29:07.585Z,89.50
2017-08-27T04:32:17.721Z,88.30
2017-08-27T04:35:28.429Z,87.80
2017-08-27T04:38:38.728Z,89.60
2017-08-27T04:41:49.101Z,87.70
2017-08-27T04:44:59.112Z,88.10
2017-08-27T04:48:08.904Z,87.90
2017-08-27T04:51:18.546Z,88.00
2017-08-27T04:54:29.095Z,90.00
2017-08-27T04:57:39.089Z,90.00
2017-08-27T05:00:48.960Z,88.80
2017-08-27T05:03:59.706Z,88.90
2017-08-27T05:07:09.780Z,89.00
2017-08-27T05:10:20.034Z,89.70
2017-08-27T05:13:30.094Z,90.30
2017-08-27T05:16:40.521Z,90.50
2017-08-27T05:19:51.187Z,90.10
2017-08-27T05:23:01.654Z,90.40
2017-08-27T05:26:11.781Z,88.80
2017-08-27T05:29:21.977Z,90.00
2017-08-27T05:32:32.124Z,89.40
2017-08-27T05:35:43.161Z,90.60
2017-08-27T05:38:52.745Z,90.30
2017-08-27T05:42:02.638Z,89.40
2017-08-27T05:45:12.645Z,90.00
2017-08-27T05:48:22.930Z,89.00
2017-08-27T05:51:33.265Z,90.00
2017-08-27T05:54:43.475Z,89.70
2017-08-27T05:57:53.490Z,90.50
2017-08-27T06:01:03.343Z,89.00
2017-08-27T06:04:14.397Z,90.40
2017-08-27T06:07:24.255Z,90.40
2017-08-27T06:10:34.701Z,88.70
2017-08-27T06:13:45.248Z,90.00
2017-08-27T06:16:55.584Z,90.40
2017-08-27T06:20:05.945Z,90.10
2017-08-27T06:23:16.207Z,89.30
2017-08-27T06:26:26.176Z,90.00
2017-08-27T06:29:36.760Z,88.80
2017-08-27T06:32:46.761Z,87.80
2017-08-27T06:35:57.217Z,88.30
2017-08-27T06:39:06.997Z,86.70
2017-08-27T06:42:17.655Z,87.30
2017-08-27T06:45:27.866Z,87.60
2017-08-27T06:48:37.576Z,87.70
2017-08-27T06:51:48.077Z,86.90
2017-08-27T06:54:58.243Z,87.60
2017-08-27T06:58:08.126Z,87.20
2017-08-27T07:01:17.329Z,87.40
2017-08-27T07:04:27.865Z,87.40
2017-08-27T07:07:38.124Z,85.50
2017-08-27T07:10:48.601Z,86.60
2017-08-27T07:13:58.454Z,83.70
2017-08-27T07:17:08.618Z,81.00
2017-08-27T07:20:18.441Z,78.40
2017-08-27T07:23:27.312Z,78.10
2017-08-27T07:26:36.356Z,78.80
2017-08-27T07:29:45.174Z,77.20
2017-08-27T07:32:54.504Z,77.60
2017-08-27T07:36:03.163Z,75.80
2017-08-27T07:39:12.144Z,76.90
2017-08-27T07:42:21.267Z,76.70
2017-08-27T07:45:29.961Z,75.20
2017-08-27T07:48:39.166Z,75.30
2017-08-27T07:51:47.992Z,72.90
2017-08-27T07:54:56.965Z,71.00
2017-08-27T07:58:06.651Z,73.40
2017-08-27T08:01:15.697Z,72.80
2017-08-27T08:04:24.637Z,70.80
2017-08-27T08:07:33.540Z,71.00
2017-08-27T08:10:43.328Z,70.50
2017-08-27T08:13:52.448Z,70.20
2017-08-27T08:17:01.604Z,70.60
2017-08-27T08:20:10.697Z,71.00
2017-08-27T08:23:19.744Z,71.10
2017-08-27T08:26:28.822Z,69.30
2017-08-27T08:29:37.856Z,71.10
2017-08-27T08:32:46.539Z,70.70
2017-08-27T08:35:55.573Z,68.80
2017-08-27T08:39:07.222Z,69.70
2017-08-27T08:42:16.276Z,68.30
2017-08-27T08:45:25.152Z,68.00
2017-08-27T08:48:34.263Z,65.80
2017-08-27T08:51:42.998Z,66.20
2017-08-27T08:54:52.396Z,65.70
2017-08-27T08:58:01.505Z,66.60
2017-08-27T09:01:10.431Z,66.30
2017-08-27T09:04:19.524Z,64.90
2017-08-27T09:07:28.423Z,65.30
2017-08-27T09:10:37.284Z,65.90
2017-08-27T09:13:46.612Z,65.80
2017-08-27T09:16:55.648Z,67.20
2017-08-27T09:20:04.535Z,64.20
2017-08-27T09:23:13.533Z,66.20
2017-08-27T09:26:22.452Z,65.90
2017-08-27T09:29:31.590Z,65.70
2017-08-27T09:32:40.446Z,66.00
2017-08-27T09:35:50.453Z,65.60
2017-08-27T09:39:00.203Z,64.00
2017-08-27T09:42:09.403Z,63.90
2017-08-27T09:45:17.967Z,63.00
2017-08-27T09:48:27.048Z,62.20
2017-08-27T09:51:35.989Z,63.80
2017-08-27T09:54:44.779Z,61.20
2017-08-27T09:57:53.570Z,59.70
2017-08-27T10:01:02.571Z,61.90
2017-08-27T10:04:11.257Z,65.10
2017-08-27T10:07:20.293Z,63.90
2017-08-27T10:10:29.005Z,64.30
2017-08-27T10:13:38.173Z,64.30
2017-08-27T10:16:46.891Z,63.50
2017-08-27T10:19:55.806Z,61.60
2017-08-27T10:23:04.525Z,62.90
2017-08-27T10:26:13.600Z,63.00
2017-08-27T10:29:23.301Z,62.80
2017-08-27T10:32:32.957Z,62.80
2017-08-27T10:35:41.986Z,61.00
2017-08-27T10:38:51.554Z,60.10
2017-08-27T10:42:01.089Z,61.30
2017-08-27T10:45:10.432Z,62.30
2017-08-27T10:48:19.353Z,62.80
2017-08-27T10:51:28.321Z,61.70
2017-08-27T10:54:37.929Z,60.40
2017-08-27T10:57:46.999Z,60.30
2017-08-27T11:00:55.772Z,62.40
2017-08-27T11:04:04.816Z,61.10
2017-08-27T11:07:13.849Z,61.10
2017-08-27T11:10:23.293Z,60.90
2017-08-27T11:13:32.040Z,59.50
2017-08-27T11:16:41.014Z,61.00
2017-08-27T11:19:50.023Z,60.30
2017-08-27T11:22:58.933Z,59.10
2017-08-27T11:26:08.052Z,58.60
2017-08-27T11:29:17.199Z,59.50
2017-08-27T11:32:26.940Z,58.00
2017-08-27T11:35:35.953Z,58.00
2017-08-27T11:38:44.716Z,57.60
2017-08-27T11:41:53.925Z,58.00
2017-08-27T11:45:02.758Z,59.50
2017-08-27T11:48:11.945Z,60.30
2017-08-27T11:51:20.849Z,60.60
2017-08-27T11:54:29.668Z,61.60
2017-08-27T11:57:38.995Z,61.70
2017-08-27T12:00:48.040Z,60.70
2017-08-27T12:03:56.945Z,59.90
2017-08-27T12:07:05.869Z,60.50
2017-08-27T12:10:14.823Z,59.60
2017-08-27T12:13:23.779Z,60.40
2017-08-27T12:16:32.727Z,59.40
2017-08-27T12:19:41.723Z,57.40
2017-08-27T12:22:51.440Z,57.40
2017-08-27T12:26:00.417Z,57.10
2017-08-27T12:29:09.435Z,58.70
2017-08-27T12:32:18.461Z,59.00
2017-08-27T12:35:27.464Z,58.40
2017-08-27T12:38:36.633Z,59.00
2017-08-27T12:41:45.443Z,60.10
2017-08-27T12:44:54.439Z,57.60
2017-08-27T12:48:03.307Z,57.40
2017-08-27T12:51:12.061Z,56.30
2017-08-27T12:54:21.363Z,56.00
2017-08-27T12:57:30.348Z,56.70
2017-08-27T13:00:39.530Z,56.30
2017-08-27T13:03:48.877Z,58.10
2017-08-27T13:06:57.704Z,58.90
2017-08-27T13:10:06.745Z,58.70
2017-08-27T13:13:15.617Z,59.00
2017-08-27T13:16:25.233Z,59.60
2017-08-27T13:19:34.815Z,58.80
2017-08-27T13:22:43.992Z,57.70
2017-08-27T13:25:53.152Z,57.30
2017-08-27T13:29:01.976Z,58.10
2017-08-27T13:32:10.907Z,57.10
2017-08-27T13:35:19.900Z,56.80
2017-08-27T13:38:28.887Z,56.20
2017-08-27T13:41:37.845Z,55.90
2017-08-27T13:44:47.593Z,54.00
2017-08-27T13:47:56.572Z,53.90
2017-08-27T13:51:05.670Z,53.00
2017-08-27T13:54:14.436Z,53.60
2017-08-27T13:57:23.382Z,54.70
2017-08-27T14:00:32.385Z,55.20
2017-08-27T14:03:41.278Z,53.20
2017-08-27T14:06:50.235Z,53.50
2017-08-27T14:09:59.054Z,53.80
2017-08-27T14:13:08.199Z,54.40
2017-08-27T14:16:18.017Z,55.60
2017-08-27T14:19:27.496Z,55.90
2017-08-27T14:22:36.721Z,55.90
2017-08-27T14:25:45.735Z,56.40
2017-08-27T14:28:55.108Z,57.50
2017-08-27T14:32:04.779Z,57.00
2017-08-27T14:35:14.448Z,57.90
2017-08-27T14:38:23.858Z,56.90
2017-08-27T14:41:33.502Z,57.70
2017-08-27T14:44:42.654Z,57.60
2017-08-27T14:47:51.380Z,57.60
2017-08-27T14:51:00.579Z,56.80
2017-08-27T14:54:09.431Z,57.80
2017-08-27T14:57:18.327Z,57.00
2017-08-27T15:00:27.093Z,57.90
2017-08-27T15:03:36.035Z,57.40
2017-08-27T15:06:45.547Z,57.10
2017-08-27T15:09:54.389Z,57.50
2017-08-27T15:13:03.115Z,56.80
2017-08-27T15:16:13.027Z,56.40
2017-08-27T15:19:22.180Z,56.40
2017-08-27T15:22:31.820Z,56.20
2017-08-27T15:25:41.049Z,55.70
2017-08-27T15:28:50.284Z,54.70
2017-08-27T15:31:59.185Z,55.00
2017-08-27T15:35:08.832Z,54.40
2017-08-27T15:38:17.996Z,54.40
2017-08-27T15:41:27.664Z,54.50
2017-08-27T15:44:37.194Z,54.00
2017-08-27T15:47:46.759Z,54.50
2017-08-27T15:50:55.772Z,54.80
2017-08-27T15:54:04.740Z,56.20
2017-08-27T15:57:13.781Z,57.20
2017-08-27T16:00:22.698Z,57.00
2017-08-27T16:03:31.521Z,57.10
2017-08-27T16:06:40.297Z,56.90
2017-08-27T16:09:49.085Z,56.90
2017-08-27T16:12:58.219Z,56.60
2017-08-27T16:16:07.163Z,56.60
2017-08-27T16:19:16.128Z,54.60
2017-08-27T16:22:24.828Z,55.90
2017-08-27T16:25:33.892Z,55.90
2017-08-27T16:28:43.408Z,53.10
2017-08-27T16:31:52.027Z,53.20
2017-08-27T16:35:01.514Z,53.60
2017-08-27T16:38:10.614Z,53.60
2017-08-27T16:41:19.699Z,53.60
2017-08-27T16:44:28.782Z,53.70
2017-08-27T16:47:38.361Z,54.00
2017-08-27T16:50:47.419Z,54.00
2017-08-27T16:53:56.967Z,54.10
2017-08-27T16:57:06.217Z,54.10
2017-08-27T17:00:15.203Z,54.10
2017-08-27T17:03:24.288Z,54.10
2017-08-27T17:06:33.171Z,54.30
2017-08-27T17:09:41.970Z,55.00
2017-08-27T17:12:50.515Z,55.10
2017-08-27T17:16:00.832Z,55.70
2017-08-27T17:19:10.785Z,55.50
2017-08-27T17:22:19.840Z,55.50
2017-08-27T17:25:28.649Z,56.20
2017-08-27T17:28:37.464Z,56.10
2017-08-27T17:31:46.234Z,56.90
2017-08-27T17:34:55.066Z,57.80
2017-08-27T17:38:04.291Z,58.40
2017-08-27T17:41:13.049Z,58.60
2017-08-27T17:44:21.640Z,57.40
2017-08-27T17:47:30.662Z,56.90
2017-08-27T17:50:39.481Z,57.00
2017-08-27T17:53:49.785Z,58.40
2017-08-27T17:56:59.208Z,59.50
2017-08-27T18:00:07.829Z,59.80
2017-08-27T18:03:16.536Z,61.10
2017-08-27T18:06:25.796Z,61.20
2017-08-27T18:09:34.695Z,61.10
2017-08-27T18:12:43.672Z,61.50
2017-08-27T18:15:52.494Z,62.10
2017-08-27T18:19:01.300Z,62.40
2017-08-27T18:22:10.403Z,63.50
2017-08-27T18:25:21.769Z,64.10
2017-08-27T18:28:31.587Z,64.50
2017-08-27T18:31:40.383Z,65.00
2017-08-27T18:34:49.187Z,65.30
2017-08-27T18:37:58.164Z,65.50
2017-08-27T18:41:06.959Z,65.50
2017-08-27T18:44:15.886Z,65.50
2017-08-27T18:47:24.963Z,65.70
2017-08-27T18:50:34.382Z,65.60
2017-08-27T18:53:44.185Z,66.40
2017-08-27T18:56:54.198Z,66.10
2017-08-27T19:00:03.283Z,66.70
2017-08-27T19:03:12.066Z,67.00
2017-08-27T19:06:21.304Z,68.00
2017-08-27T19:09:30.664Z,68.70
2017-08-27T19:12:40.169Z,68.70
2017-08-27T19:15:49.080Z,69.00
2017-08-27T19:18:57.891Z,68.40
2017-08-27T19:22:07.126Z,68.30
2017-08-27T19:25:16.250Z,68.80
2017-08-27T19:28:25.171Z,69.10
2017-08-27T19:31:34.152Z,69.10
2017-08-27T19:34:43.155Z,69.30
2017-08-27T19:37:52.001Z,69.50
2017-08-27T19:41:01.023Z,69.20
2017-08-27T19:44:09.851Z,69.50
2017-08-27T19:47:18.876Z,68.90
2017-08-27T19:50:27.789Z,69.40
2017-08-27T19:53:36.659Z,69.90
2017-08-27T19:56:45.624Z,70.40
2017-08-27T19:59:54.389Z,70.20
2017-08-27T20:03:03.509Z,70.40
2017-08-27T20:06:12.303Z,70.30
2017-08-27T20:09:22.189Z,70.40
2017-08-27T20:12:31.783Z,70.40
2017-08-27T20:15:41.376Z,71.10
2017-08-27T20:18:51.031Z,72.00
2017-08-27T20:21:59.979Z,71.50
2017-08-27T20:25:09.190Z,72.80
2017-08-27T20:28:18.376Z,72.30
2017-08-27T20:31:27.201Z,72.20
2017-08-27T20:34:36.548Z,72.60
2017-08-27T20:37:45.364Z,72.60
2017-08-27T20:40:54.299Z,73.30
2017-08-27T20:44:03.212Z,73.60
2017-08-27T20:47:12.036Z,74.20
2017-08-27T20:50:21.161Z,74.10
2017-08-27T20:53:29.905Z,74.30
2017-08-27T20:56:39.026Z,75.10
2017-08-27T20:59:49.388Z,75.80
2017-08-27T21:02:58.788Z,75.70
2017-08-27T21:06:07.583Z,75.50
2017-08-27T21:09:17.076Z,76.10
2017-08-27T21:12:26.981Z,75.90
2017-08-27T21:15:36.124Z,75.90
2017-08-27T21:18:45.166Z,75.80
2017-08-27T21:21:54.057Z,76.10
2017-08-27T21:25:03.220Z,75.20
2017-08-27T21:28:12.235Z,75.40
2017-08-27T21:31:21.821Z,76.00
2017-08-27T21:34:30.863Z,74.00
2017-08-27T21:37:40.291Z,73.80
2017-08-27T21:40:49.499Z,75.20
2017-08-27T21:43:58.623Z,74.10
2017-08-27T21:47:07.968Z,75.60
2017-08-27T21:50:17.022Z,75.60
2017-08-27T21:53:25.952Z,77.10
2017-08-27T21:56:34.984Z,76.40
2017-08-27T21:59:43.955Z,76.10
2017-08-27T22:02:53.003Z,75.50
2017-08-27T22:06:01.656Z,75.20
2017-08-27T22:09:10.812Z,75.20
2017-08-27T22:12:52.149Z,75.80
2017-08-27T22:16:01.794Z,76.20
2017-08-27T22:19:12.097Z,76.60
2017-08-27T22:22:22.294Z,77.60
2017-08-27T22:25:32.684Z,78.80
2017-08-27T22:28:43.182Z,77.70
2017-08-27T22:31:53.718Z,77.70
2017-08-27T22:35:04.509Z,76.90
2017-08-27T22:38:14.534Z,76.60
2017-08-27T22:41:24.173Z,77.30
2017-08-27T22:44:35.058Z,77.10
2017-08-27T22:47:45.265Z,76.70
2017-08-27T22:50:55.449Z,76.60
2017-08-27T22:54:05.359Z,75.80
2017-08-27T22:57:15.889Z,76.50
2017-08-27T23:00:26.269Z,77.90
2017-08-27T23:03:36.199Z,77.80
2017-08-27T23:06:46.414Z,78.00
2017-08-27T23:09:56.757Z,78.40
2017-08-27T23:13:06.809Z,78.20
2017-08-27T23:16:17.543Z,78.00
2017-08-27T23:19:27.689Z,78.20
2017-08-27T23:22:37.989Z,77.90
2017-08-27T23:25:48.317Z,77.00
2017-08-27T23:28:59.749Z,77.70
2017-08-27T23:32:09.901Z,77.60
2017-08-27T23:35:20.559Z,77.90
2017-08-27T23:38:30.781Z,78.00
2017-08-27T23:41:40.816Z,78.20
2017-08-27T23:44:51.654Z,79.10
2017-08-27T23:48:01.694Z,78.20
2017-08-27T23:51:12.027Z,78.90
2017-08-27T23:54:22.286Z,79.10
2017-08-27T23:57:32.036Z,79.30
